Time;durP1;ratioP1;P1;durP2;ratioP2;P2;SDS_P1;SDS_P2;PMS_P1;PMS_P2;Temp;Humidity;BMP_temperature;BMP_pressure;BME280_temperature;BME280_humidity;BME280_pressure;Samples;Min_cycle;Max_cycle;Signal;HPM_P1;HPM_P2
2022/09/10 00:01:41;;;;;;;10.50;7.78;;;;;;;19.02;83.82;94557.03;5149917;27;20256;-73
2022/09/10 00:04:11;;;;;;;13.88;8.57;;;;;;;18.98;84.03;94547.22;5149869;27;20330;-73
2022/09/10 00:06:40;;;;;;;11.15;9.10;;;;;;;18.95;84.05;94547.97;5149614;27;20710;-73
2022/09/10 00:09:07;;;;;;;15.38;9.57;;;;;;;19.04;84.06;94556.66;5149550;27;20220;-74
2022/09/10 00:11:37;;;;;;;12.07;8.25;;;;;;;18.99;84.10;94555.06;5149762;27;20196;-72
2022/09/10 00:14:05;;;;;;;11.27;8.05;;;;;;;19.02;83.84;94537.81;5149516;27;20704;-74
2022/09/10 00:16:32;;;;;;;11.20;7.95;;;;;;;18.90;84.80;94546.38;5149652;27;20208;-74
2022/09/10 00:19:00;;;;;;;12.95;8.18;;;;;;;18.95;84.41;94557.00;5148533;27;20651;-74
2022/09/10 00:21:28;;;;;;;10.05;8.10;;;;;;;19.02;84.37;94559.78;5148964;27;20200;-74
2022/09/10 00:23:57;;;;;;;14.68;7.90;;;;;;;18.90;84.96;94565.59;5148941;27;20196;-73
2022/09/10 00:26:26;;;;;;;11.68;7.85;;;;;;;18.83;85.27;94557.31;5148726;27;20208;-75
2022/09/10 00:28:54;;;;;;;13.32;8.02;;;;;;;18.87;84.78;94549.06;5148043;27;20675;-73
2022/09/10 00:31:22;;;;;;;14.95;7.82;;;;;;;18.93;84.37;94551.09;5148344;27;20621;-72
2022/09/10 00:33:51;;;;;;;14.48;9.80;;;;;;;18.91;83.97;94553.44;5147591;27;20217;-73
2022/09/10 00:36:20;;;;;;;9.98;7.43;;;;;;;19.06;83.69;94544.13;5148485;27;20295;-74
2022/09/10 00:38:47;;;;;;;11.00;6.85;;;;;;;19.18;83.92;94552.03;5148493;27;20196;-74
2022/09/10 00:41:17;;;;;;;16.17;9.70;;;;;;;19.16;82.91;94559.06;5148349;27;20257;-74
2022/09/10 00:43:51;;;;;;;13.40;9.18;;;;;;;19.26;82.86;94552.09;5148488;27;20200;-72
2022/09/10 00:46:25;;;;;;;16.65;8.50;;;;;;;19.03;83.32;94555.84;5148166;27;20196;-74
2022/09/10 00:48:54;;;;;;;10.73;7.57;;;;;;;19.02;83.63;94554.28;5147449;27;20327;-72
2022/09/10 00:51:22;;;;;;;14.27;7.65;;;;;;;18.93;84.68;94551.09;5146158;27;20200;-73
2022/09/10 00:53:49;;;;;;;18.15;11.02;;;;;;;18.94;84.50;94549.94;5147472;27;20193;-74
2022/09/10 00:56:18;;;;;;;13.50;9.68;;;;;;;18.98;84.10;94553.50;5147828;27;20252;-74
2022/09/10 00:58:46;;;;;;;15.88;10.70;;;;;;;19.13;83.33;94538.66;5146796;27;20271;-72
2022/09/10 01:01:13;;;;;;;12.88;10.23;;;;;;;19.28;83.16;94544.22;5133904;27;20652;-74
2022/09/10 01:03:42;;;;;;;12.23;9.57;;;;;;;19.30;83.35;94547.38;5133977;27;20201;-73
2022/09/10 01:06:09;;;;;;;15.27;9.95;;;;;;;19.28;83.63;94544.22;5134396;27;20249;-74
2022/09/10 01:08:36;;;;;;;15.93;10.05;;;;;;;19.24;83.40;94537.94;5133971;27;20220;-72
2022/09/10 01:11:15;;;;;;;14.60;8.20;;;;;;;19.39;82.94;94532.13;5134527;27;20258;-73
2022/09/10 01:13:59;;;;;;;14.15;7.57;;;;;;;19.33;83.40;94530.13;5134226;27;20238;-73
2022/09/10 01:16:34;;;;;;;13.95;7.65;;;;;;;19.06;84.71;94544.13;5134304;27;20193;-72
2022/09/10 01:19:09;;;;;;;9.15;6.93;;;;;;;19.00;85.13;94551.13;5133953;27;20250;-74
2022/09/10 01:21:43;;;;;;;10.18;8.00;;;;;;;19.02;85.01;94537.81;5132775;27;20184;-72
2022/09/10 01:24:38;;;;;;;10.57;7.50;;;;;;;19.06;84.52;94527.63;5134132;27;20254;-72
2022/09/10 01:27:32;;;;;;;12.00;7.65;;;;;;;19.14;84.58;94521.00;5133764;27;20276;-74
2022/09/10 01:30:05;;;;;;;10.65;7.65;;;;;;;19.12;84.50;94520.63;5133996;27;20197;-74
2022/09/10 01:32:40;;;;;;;13.05;7.65;;;;;;;19.32;83.65;94518.34;5133669;27;20299;-74
2022/09/10 01:35:15;;;;;;;10.30;7.20;;;;;;;19.38;83.13;94502.28;5134073;27;20189;-74
2022/09/10 01:37:46;;;;;;;13.35;8.30;;;;;;;19.39;82.86;94512.13;5133686;27;20201;-74
2022/09/10 01:40:16;;;;;;;11.70;7.90;;;;;;;19.37;82.84;94519.94;5133818;27;20228;-73
2022/09/10 01:42:44;;;;;;;17.25;8.30;;;;;;;19.31;82.90;94511.28;5133542;27;20556;-73
2022/09/10 01:45:14;;;;;;;15.15;7.72;;;;;;;19.31;82.82;94521.47;5133415;27;20209;-74
2022/09/10 01:48:10;;;;;;;12.55;7.70;;;;;;;19.40;82.80;94513.69;5133372;27;20205;-74
2022/09/10 01:50:46;;;;;;;11.18;7.25;;;;;;;19.45;82.92;94513.31;5133542;27;20660;-74
2022/09/10 01:53:38;;;;;;;15.85;8.13;;;;;;;19.54;82.26;94518.47;5132025;27;20184;-74
2022/09/10 01:56:17;;;;;;;8.55;6.90;;;;;;;19.56;82.54;94522.41;5133040;27;20221;-73
2022/09/10 01:58:45;;;;;;;12.70;9.88;;;;;;;19.61;81.97;94526.75;5132543;27;20250;-73
2022/09/10 02:01:20;;;;;;;11.10;7.93;;;;;;;19.59;81.97;94527.13;5132314;27;20197;-73
2022/09/10 02:03:53;;;;;;;14.13;7.45;;;;;;;19.57;81.90;94532.22;5132819;27;20196;-74
2022/09/10 02:06:26;;;;;;;14.27;7.88;;;;;;;19.50;82.40;94540.44;5133272;27;20246;-73
2022/09/10 02:08:55;;;;;;;8.73;6.97;;;;;;;19.45;82.82;94538.03;5132983;27;20645;-73
2022/09/10 02:11:22;;;;;;;14.02;7.65;;;;;;;19.28;83.07;94544.22;5132191;27;20291;-73
2022/09/10 02:13:49;;;;;;;10.93;7.50;;;;;;;19.07;83.69;94545.69;5132958;27;20201;-73
2022/09/10 02:16:24;;;;;;;15.02;7.75;;;;;;;19.09;83.64;94531.59;5133323;27;20204;-73
2022/09/10 02:18:51;;;;;;;11.43;7.95;;;;;;;19.22;83.06;94529.28;5132464;27;20632;-74
2022/09/10 02:21:18;;;;;;;12.40;9.77;;;;;;;19.27;83.07;94528.94;5133031;27;20212;-74
2022/09/10 02:23:48;;;;;;;12.55;7.38;;;;;;;19.25;83.30;94531.28;5131199;27;20253;-73
2022/09/10 02:26:15;;;;;;;16.58;8.23;;;;;;;19.28;83.03;94525.00;5132501;27;20193;-74
2022/09/10 02:28:43;;;;;;;14.50;9.57;;;;;;;19.32;83.44;94520.31;5132643;27;20224;-73
2022/09/10 02:31:10;;;;;;;12.48;9.35;;;;;;;19.25;83.47;94526.56;5132561;27;20224;-73
2022/09/10 02:33:38;;;;;;;12.10;8.38;;;;;;;19.16;83.91;94521.41;5132134;27;20580;-74
2022/09/10 02:36:05;;;;;;;16.38;8.40;;;;;;;19.18;83.81;94519.06;5132415;27;20542;-74
2022/09/10 02:38:32;;;;;;;16.55;7.97;;;;;;;19.20;83.60;94523.41;5132419;27;20648;-73
2022/09/10 02:40:59;;;;;;;13.32;10.75;;;;;;;19.03;83.89;94517.41;5132750;27;20192;-73
2022/09/10 02:43:26;;;;;;;13.07;7.57;;;;;;;18.87;85.07;94541.63;5132095;27;20257;-74
2022/09/10 02:45:56;;;;;;;13.75;7.93;;;;;;;18.88;85.39;94543.22;5132367;27;20197;-73
2022/09/10 02:48:24;;;;;;;9.63;7.47;;;;;;;18.86;85.18;94545.53;5131737;27;20343;-74
2022/09/10 02:50:53;;;;;;;11.63;6.82;;;;;;;18.89;85.07;94533.81;5132316;27;20246;-73
2022/09/10 02:53:20;;;;;;;17.30;7.63;;;;;;;19.11;84.76;94534.75;5131432;27;20731;-73
2022/09/10 02:55:48;;;;;;;11.15;8.05;;;;;;;19.17;84.79;94539.47;5131716;27;20245;-74
2022/09/10 02:58:16;;;;;;;10.43;7.25;;;;;;;19.28;84.38;94538.72;5132164;27;20197;-74
2022/09/10 03:00:44;;;;;;;11.52;8.30;;;;;;;19.18;84.45;94532.81;5131969;27;20655;-73
2022/09/10 03:03:11;;;;;;;11.18;8.13;;;;;;;19.14;84.42;94537.47;5131840;27;20209;-74
2022/09/10 03:05:38;;;;;;;12.30;7.95;;;;;;;19.20;84.37;94542.63;5132014;27;20204;-73
2022/09/10 03:08:07;;;;;;;10.73;7.93;;;;;;;19.20;84.19;94542.63;5131734;27;20649;-72
2022/09/10 03:10:35;;;;;;;8.52;6.93;;;;;;;19.12;84.48;94536.31;5132082;27;20209;-73
2022/09/10 03:13:02;;;;;;;10.93;7.47;;;;;;;19.13;83.99;94530.41;5131993;27;20340;-73
2022/09/10 03:15:29;;;;;;;11.82;7.75;;;;;;;19.06;85.01;94538.63;5131831;27;20204;-73
2022/09/10 03:17:55;;;;;;;15.23;10.38;;;;;;;19.10;85.22;94533.16;5130981;27;20224;-73
2022/09/10 03:20:22;;;;;;;13.98;8.45;;;;;;;19.13;85.17;94544.13;5129524;27;20197;-72
2022/09/10 03:22:50;;;;;;;13.55;10.05;;;;;;;19.20;84.65;94542.63;5126189;27;20201;-72
2022/09/10 03:25:18;;;;;;;13.05;10.27;;;;;;;19.06;85.33;94538.63;5129656;27;20339;-72
2022/09/10 03:27:45;;;;;;;13.07;8.68;;;;;;;18.90;86.00;94540.88;5120047;27;20684;-72
2022/09/10 03:30:13;;;;;;;19.10;8.45;;;;;;;18.81;86.10;94537.69;5130994;27;20648;-71
2022/09/10 03:32:39;;;;;;;11.05;8.32;;;;;;;18.95;86.03;94537.00;5131425;27;20220;-71
2022/09/10 03:35:07;;;;;;;10.52;8.02;;;;;;;19.03;86.28;94527.63;5131131;27;20239;-74
2022/09/10 03:37:34;;;;;;;14.35;8.23;;;;;;;19.08;85.80;94536.28;5131144;27;20335;-74
2022/09/10 03:40:01;;;;;;;16.20;9.53;;;;;;;19.09;85.86;94526.88;5130801;27;20587;-75
2022/09/10 03:42:29;;;;;;;13.90;10.68;;;;;;;19.01;86.92;94518.97;5128338;27;20197;-75
2022/09/10 03:44:56;;;;;;;16.38;11.20;;;;;;;18.98;86.75;94526.03;5142783;27;20784;-76
2022/09/10 03:47:22;;;;;;;16.85;10.80;;;;;;;18.93;86.71;94520.91;5130771;28;20207;-75
2022/09/10 03:49:50;;;;;;;14.48;11.05;;;;;;;18.95;86.59;94521.31;5129778;28;20240;-75
2022/09/10 03:52:17;;;;;;;12.70;7.97;;;;;;;18.97;86.26;94524.47;5130302;28;20297;-73
2022/09/10 03:54:44;;;;;;;15.55;10.90;;;;;;;18.92;86.59;94516.56;5130269;27;20297;-74
2022/09/10 03:57:11;;;;;;;15.65;8.05;;;;;;;18.98;86.26;94508.78;5129147;27;20636;-73
2022/09/10 03:59:40;;;;;;;17.50;8.27;;;;;;;18.98;86.18;94503.28;5130866;27;20204;-74
2022/09/10 04:02:08;;;;;;;11.13;8.20;;;;;;;18.84;86.87;94498.50;5130384;27;20214;-73
2022/09/10 04:04:36;;;;;;;13.95;8.65;;;;;;;18.90;86.73;94510.69;5129251;28;20272;-74
2022/09/10 04:07:03;;;;;;;15.25;9.07;;;;;;;18.96;86.29;94522.88;5128273;27;20215;-74
2022/09/10 04:09:31;;;;;;;14.13;11.13;;;;;;;19.01;86.48;94524.47;5129639;28;20221;-74
2022/09/10 04:11:58;;;;;;;18.23;8.68;;;;;;;19.09;86.52;94515.09;5129368;28;20222;-75
2022/09/10 04:14:25;;;;;;;17.25;11.05;;;;;;;19.07;86.73;94512.75;5129533;28;20289;-74
2022/09/10 04:16:54;;;;;;;15.70;12.60;;;;;;;19.09;86.05;94510.41;5128476;28;20248;-74
2022/09/10 04:19:21;;;;;;;14.35;8.57;;;;;;;19.22;85.96;94518.31;5128875;28;20193;-74
2022/09/10 04:21:49;;;;;;;13.52;8.75;;;;;;;19.28;85.99;94522.25;5128845;28;20189;-73
2022/09/10 04:24:16;;;;;;;15.35;9.90;;;;;;;19.22;86.75;94518.31;5129835;28;20189;-75
2022/09/10 04:26:43;;;;;;;14.02;10.80;;;;;;;19.27;85.81;94529.69;5127810;28;20197;-74
2022/09/10 04:29:10;;;;;;;13.57;10.80;;;;;;;19.38;85.83;94532.50;5126993;28;20277;-76
2022/09/10 04:31:37;;;;;;;15.13;11.23;;;;;;;19.28;86.16;94541.47;5129063;27;20301;-74
2022/09/10 04:34:06;;;;;;;13.88;8.07;;;;;;;19.26;86.15;94547.38;5129518;27;20193;-74
2022/09/10 04:36:33;;;;;;;13.45;7.80;;;;;;;19.20;85.95;94543.41;5130704;27;20627;-74
2022/09/10 04:39:00;;;;;;;14.98;8.10;;;;;;;19.12;86.35;94537.09;5133320;27;20238;-75
2022/09/10 04:41:26;;;;;;;15.35;8.82;;;;;;;19.21;85.77;94536.75;5132624;27;20557;-74
2022/09/10 04:43:53;;;;;;;13.55;9.35;;;;;;;19.13;86.09;94527.66;5129930;27;20197;-75
2022/09/10 04:46:20;;;;;;;20.30;8.65;;;;;;;19.14;86.26;94523.75;5133153;27;20676;-75
2022/09/10 04:48:47;;;;;;;13.23;8.52;;;;;;;19.20;86.08;94526.13;5132362;27;20773;-73
2022/09/10 04:51:16;;;;;;;11.25;8.48;;;;;;;19.32;86.07;94525.81;5130181;27;20253;-73
2022/09/10 04:53:43;;;;;;;18.30;11.25;;;;;;;19.07;86.99;94507.25;5133024;27;20219;-72
2022/09/10 04:56:10;;;;;;;15.57;8.63;;;;;;;19.26;85.87;94506.19;5131300;27;20756;-73
2022/09/10 04:58:37;;;;;;;15.10;9.20;;;;;;;19.26;85.94;94513.63;5130215;27;20197;-72
2022/09/10 05:01:03;;;;;;;14.80;8.48;;;;;;;19.45;85.83;94521.53;5132060;27;20193;-71
2022/09/10 05:03:30;;;;;;;12.73;8.60;;;;;;;19.52;86.01;94510.63;5132154;27;20198;-74
2022/09/10 05:05:57;;;;;;;13.65;8.68;;;;;;;19.46;85.82;94515.66;5132095;27;20193;-74
2022/09/10 05:08:25;;;;;;;15.63;8.65;;;;;;;19.65;85.39;94520.09;5132277;27;20189;-73
2022/09/10 05:10:52;;;;;;;15.93;8.68;;;;;;;19.78;84.99;94515.81;5131819;27;20797;-73
2022/09/10 05:13:19;;;;;;;18.88;11.52;;;;;;;19.74;84.91;94517.75;5130518;27;20246;-74
2022/09/10 05:15:46;;;;;;;18.08;11.48;;;;;;;19.72;84.63;94520.09;5131837;27;20201;-74
2022/09/10 05:18:12;;;;;;;17.63;11.55;;;;;;;19.51;84.98;94515.34;5129337;27;20254;-73
2022/09/10 05:20:39;;;;;;;13.88;11.13;;;;;;;19.49;85.26;94522.38;5132381;27;20555;-73
2022/09/10 05:23:08;;;;;;;18.80;10.05;;;;;;;19.54;85.65;94529.47;5132368;27;20234;-73
2022/09/10 05:25:36;;;;;;;18.65;12.18;;;;;;;19.54;85.15;94530.25;5129651;27;20201;-73
2022/09/10 05:28:04;;;;;;;13.10;8.95;;;;;;;19.47;85.61;94524.69;5131379;27;20196;-74
2022/09/10 05:30:31;;;;;;;13.80;9.35;;;;;;;19.54;86.14;94540.47;5130585;27;20216;-75
2022/09/10 05:32:59;;;;;;;13.43;9.10;;;;;;;19.33;87.27;94544.66;5131014;27;20220;-74
2022/09/10 05:35:27;;;;;;;13.20;8.88;;;;;;;19.20;87.83;94548.13;5129989;27;20632;-73
2022/09/10 05:37:56;;;;;;;13.38;8.85;;;;;;;19.08;88.14;94550.00;5130978;27;20641;-72
2022/09/10 05:40:24;;;;;;;16.50;10.10;;;;;;;19.12;88.36;94536.31;5130453;27;20197;-72
2022/09/10 05:42:53;;;;;;;14.75;9.73;;;;;;;19.32;87.28;94547.78;5130534;27;20201;-72
2022/09/10 05:45:20;;;;;;;12.90;9.73;;;;;;;19.48;87.03;94543.53;5130875;27;20266;-71
2022/09/10 05:47:46;;;;;;;13.77;9.18;;;;;;;19.64;85.09;94546.00;5130990;27;20556;-71
2022/09/10 05:50:14;;;;;;;15.52;9.05;;;;;;;19.81;84.84;94541.75;5130645;27;20254;-74
2022/09/10 05:52:40;;;;;;;13.68;10.38;;;;;;;19.94;84.92;94537.47;5130942;27;20638;-74
2022/09/10 05:55:08;;;;;;;18.27;12.30;;;;;;;20.26;83.64;94531.19;5129422;27;20648;-72
2022/09/10 05:57:35;;;;;;;17.58;12.18;;;;;;;20.76;81.55;94516.31;5128275;27;20703;-75
2022/09/10 06:00:05;;;;;;;19.48;10.85;;;;;;;21.43;78.14;94522.88;5131734;27;20193;-72
2022/09/10 06:02:32;;;;;;;13.50;8.52;;;;;;;22.48;73.30;94526.25;5131173;27;20193;-74
2022/09/10 06:04:59;;;;;;;13.93;9.05;;;;;;;23.87;67.88;94517.34;5132429;27;20292;-73
2022/09/10 06:07:27;;;;;;;12.77;8.90;;;;;;;24.92;64.16;94512.63;5132104;27;20201;-72
2022/09/10 06:09:54;;;;;;;14.20;8.68;;;;;;;24.24;64.18;94512.91;5132199;27;20645;-74
2022/09/10 06:12:21;;;;;;;16.88;9.73;;;;;;;24.20;64.71;94515.69;5132031;27;20625;-74
2022/09/10 06:14:48;;;;;;;16.25;10.57;;;;;;;23.02;68.25;94518.31;5132506;27;20205;-73
2022/09/10 06:17:17;;;;;;;14.80;10.18;;;;;;;23.00;69.54;94531.75;5132150;27;20242;-73
2022/09/10 06:19:44;;;;;;;17.92;9.68;;;;;;;22.69;70.30;94534.34;5131697;27;20299;-75
2022/09/10 06:22:11;;;;;;;16.85;12.45;;;;;;;22.65;70.64;94533.59;5131728;27;20756;-74
2022/09/10 06:24:38;;;;;;;18.15;9.73;;;;;;;22.55;71.05;94528.94;5131372;27;20601;-74
2022/09/10 06:27:06;;;;;;;13.75;9.50;;;;;;;23.29;69.72;94521.97;5131601;27;20201;-74
2022/09/10 06:29:35;;;;;;;15.27;9.55;;;;;;;23.72;67.68;94522.28;5130798;27;20225;-75
2022/09/10 06:32:02;;;;;;;21.75;11.60;;;;;;;23.64;66.90;94525.56;5125461;27;20216;-75
2022/09/10 06:34:31;;;;;;;19.13;12.40;;;;;;;23.32;67.62;94526.69;5131855;27;20252;-74
2022/09/10 06:36:58;;;;;;;14.60;11.63;;;;;;;23.22;68.12;94532.31;5131433;27;20569;-75
2022/09/10 06:39:26;;;;;;;16.67;11.65;;;;;;;23.68;67.01;94529.84;5130903;27;20295;-74
2022/09/10 06:41:52;;;;;;;15.43;11.57;;;;;;;24.15;65.56;94534.78;5131726;27;20205;-74
2022/09/10 06:44:21;;;;;;;17.42;11.27;;;;;;;24.45;64.63;94532.00;5131817;27;20200;-74
2022/09/10 06:46:48;;;;;;;16.65;11.70;;;;;;;24.51;64.36;94527.53;5131550;27;20201;-73
2022/09/10 06:49:15;;;;;;;21.48;12.27;;;;;;;24.68;63.22;94523.72;5130895;27;20224;-75
2022/09/10 06:51:43;;;;;;;17.65;12.80;;;;;;;24.62;63.51;94517.06;5131474;27;20254;-74
2022/09/10 06:54:09;;;;;;;15.90;11.95;;;;;;;24.91;63.09;94506.28;5130638;27;20713;-74
2022/09/10 06:56:37;;;;;;;24.55;12.02;;;;;;;25.55;61.33;94515.47;5130593;27;20220;-74
2022/09/10 06:59:04;;;;;;;17.58;12.63;;;;;;;25.98;58.99;94510.59;5130900;27;20491;-74
2022/09/10 07:01:31;;;;;;;15.43;12.50;;;;;;;26.77;56.67;94509.63;5131536;27;20209;-73
2022/09/10 07:03:59;;;;;;;16.63;12.00;;;;;;;28.34;53.08;94503.38;5130974;27;20200;-76
2022/09/10 07:06:26;;;;;;;15.55;12.45;;;;;;;29.66;49.28;94492.19;5130157;27;20604;-73
2022/09/10 07:08:56;;;;;;;17.52;10.55;;;;;;;29.81;48.33;94498.03;5128000;27;20273;-74
2022/09/10 07:11:24;;;;;;;17.23;10.65;;;;;;;30.09;48.16;94501.81;5126995;27;20225;-74
2022/09/10 07:13:52;;;;;;;18.08;12.05;;;;;;;30.28;46.78;94504.25;5129838;27;20250;-73
2022/09/10 07:16:20;;;;;;;13.55;9.65;;;;;;;28.52;50.30;94509.16;5128064;27;20228;-77
2022/09/10 07:18:49;;;;;;;14.77;9.23;;;;;;;28.64;50.27;94508.38;5129962;27;20639;-74
2022/09/10 07:21:16;;;;;;;16.02;8.77;;;;;;;29.38;48.23;94515.53;5129595;27;20288;-72
2022/09/10 07:23:46;;;;;;;14.55;8.60;;;;;;;29.64;47.12;94500.25;5129326;27;20201;-73
2022/09/10 07:26:16;;;;;;;11.73;7.93;;;;;;;28.57;50.40;94505.81;5111053;27;20203;-74
2022/09/10 07:28:44;;;;;;;15.50;8.30;;;;;;;28.20;51.80;94508.16;5130162;27;20678;-73
2022/09/10 07:31:13;;;;;;;16.73;8.43;;;;;;;28.18;51.10;94505.03;5128889;27;20380;-73
2022/09/10 07:33:40;;;;;;;15.38;8.00;;;;;;;28.06;50.92;94514.13;5130237;27;20216;-74
2022/09/10 07:36:07;;;;;;;14.18;8.38;;;;;;;27.90;51.34;94511.41;5129797;27;20292;-73
2022/09/10 07:38:34;;;;;;;11.65;8.52;;;;;;;27.31;52.56;94515.41;5128789;27;20687;-72
2022/09/10 07:41:01;;;;;;;16.20;8.40;;;;;;;27.68;52.47;94516.03;5128942;27;20660;-74
2022/09/10 07:43:30;;;;;;;10.95;9.00;;;;;;;26.76;53.63;94524.75;5129477;27;20616;-73
2022/09/10 07:45:57;;;;;;;13.23;8.93;;;;;;;26.47;54.87;94528.19;5126789;27;20197;-74
2022/09/10 07:48:24;;;;;;;14.10;9.02;;;;;;;26.75;54.17;94526.75;5129099;28;20233;-73
2022/09/10 07:50:51;;;;;;;11.05;8.93;;;;;;;27.54;52.15;94523.53;5129325;28;20235;-73
2022/09/10 07:53:18;;;;;;;12.05;8.73;;;;;;;26.45;54.42;94527.06;5129174;28;20205;-74
2022/09/10 07:55:45;;;;;;;16.00;9.20;;;;;;;26.73;53.20;94528.38;5128777;27;20212;-73
2022/09/10 07:58:12;;;;;;;16.20;8.77;;;;;;;27.41;51.66;94519.91;5129065;28;20275;-72
2022/09/10 08:00:41;;;;;;;16.45;8.93;;;;;;;27.69;51.55;94529.50;5129364;28;20197;-74
2022/09/10 08:03:11;;;;;;;14.75;8.68;;;;;;;26.90;53.44;94530.75;5128994;28;20197;-72
2022/09/10 08:05:38;;;;;;;10.82;8.70;;;;;;;26.60;55.14;94525.53;5126844;28;20228;-72
2022/09/10 08:08:05;;;;;;;14.63;9.52;;;;;;;26.62;53.74;94520.31;5129405;27;20193;-74
2022/09/10 08:10:31;;;;;;;11.98;8.65;;;;;;;27.10;52.96;94515.97;5130799;27;20624;-73
2022/09/10 08:12:58;;;;;;;13.85;9.13;;;;;;;27.44;52.10;94524.59;5131844;27;20201;-72
2022/09/10 08:15:25;;;;;;;12.60;8.13;;;;;;;27.34;52.08;94536.00;5132191;27;20262;-73
2022/09/10 08:17:54;;;;;;;12.32;8.60;;;;;;;27.52;51.69;94525.97;5132690;27;20197;-73
2022/09/10 08:20:24;;;;;;;15.27;8.88;;;;;;;27.13;52.99;94520.66;5132226;27;20315;-73
2022/09/10 08:22:50;;;;;;;14.90;9.65;;;;;;;27.51;52.33;94516.03;5131300;27;20189;-73
2022/09/10 08:25:18;;;;;;;11.82;8.90;;;;;;;27.39;53.23;94516.00;5129284;27;20197;-74
2022/09/10 08:27:45;;;;;;;14.77;9.68;;;;;;;27.37;52.44;94519.22;5130784;27;20288;-74
2022/09/10 08:30:14;;;;;;;11.68;8.23;;;;;;;27.06;52.97;94509.72;5134245;27;20232;-74
2022/09/10 08:32:41;;;;;;;12.20;8.68;;;;;;;26.91;53.93;94509.28;5134699;27;20295;-73
2022/09/10 08:35:09;;;;;;;9.75;8.57;;;;;;;27.40;53.09;94507.22;5134523;27;20201;-73
2022/09/10 08:37:36;;;;;;;12.40;8.52;;;;;;;27.46;51.70;94502.69;5133821;27;20204;-76
2022/09/10 08:40:04;;;;;;;12.63;8.70;;;;;;;27.53;51.30;94488.56;5134002;27;20208;-75
2022/09/10 08:42:38;;;;;;;14.90;9.45;;;;;;;27.81;50.80;94491.78;5134359;27;20287;-75
2022/09/10 08:45:10;;;;;;;10.40;8.93;;;;;;;28.48;48.87;94491.78;5134126;27;20207;-74
2022/09/10 08:47:49;;;;;;;15.73;9.55;;;;;;;28.83;48.79;94482.31;5133665;27;20280;-74
2022/09/10 08:50:25;;;;;;;14.07;8.57;;;;;;;28.68;49.39;94486.75;5133319;27;20687;-74
2022/09/10 08:52:57;;;;;;;11.52;8.45;;;;;;;28.20;49.31;94491.44;5134094;27;20200;-75
2022/09/10 08:55:30;;;;;;;8.85;7.95;;;;;;;28.09;51.06;94490.94;5131891;27;20216;-74
2022/09/10 08:58:00;;;;;;;11.00;8.65;;;;;;;28.28;51.21;94497.59;5133073;27;20185;-74
2022/09/10 09:00:33;;;;;;;11.30;8.73;;;;;;;28.61;50.26;94486.97;5132014;27;20197;-73
2022/09/10 09:03:04;;;;;;;13.57;8.20;;;;;;;28.35;50.74;94497.34;5129660;27;20269;-74
2022/09/10 09:05:44;;;;;;;12.50;8.27;;;;;;;28.36;50.20;94495.34;5131117;27;20292;-72
2022/09/10 09:08:13;;;;;;;13.68;8.85;;;;;;;28.34;50.44;94489.44;5129100;27;20214;-72
2022/09/10 09:10:47;;;;;;;14.38;8.32;;;;;;;28.12;49.79;94490.06;5131391;27;20735;-71
2022/09/10 09:13:27;;;;;;;11.65;8.85;;;;;;;28.27;50.31;94490.44;5129255;27;20189;-70
2022/09/10 09:16:06;;;;;;;14.10;8.68;;;;;;;28.26;49.72;94484.09;5128783;27;20598;-72
2022/09/10 09:18:53;;;;;;;11.85;8.55;;;;;;;28.14;50.31;94486.84;5131598;27;20655;-72
2022/09/10 09:21:31;;;;;;;14.73;8.63;;;;;;;27.99;51.50;94480.91;5128888;27;20201;-73
2022/09/10 09:23:58;;;;;;;11.65;8.73;;;;;;;27.83;52.56;94478.22;5129447;27;20203;-72
2022/09/10 09:26:34;;;;;;;15.98;10.32;;;;;;;27.76;52.46;94461.69;5131060;27;20197;-71
2022/09/10 09:29:05;;;;;;;12.23;8.55;;;;;;;27.59;51.72;94461.78;5130160;27;20300;-72
2022/09/10 09:31:39;;;;;;;14.25;9.40;;;;;;;27.65;51.56;94462.00;5129785;27;20233;-72
2022/09/10 09:34:18;;;;;;;14.65;10.63;;;;;;;27.65;52.03;94466.78;5129586;27;20271;-73
2022/09/10 09:36:50;;;;;;;19.13;12.13;;;;;;;27.34;52.76;94455.31;5128445;27;20201;-74
2022/09/10 09:39:21;;;;;;;12.77;9.30;;;;;;;26.88;53.90;94454.53;5127630;27;20198;-72
2022/09/10 09:41:58;;;;;;;14.43;9.68;;;;;;;27.07;54.35;94445.31;5125790;27;20403;-73
2022/09/10 09:44:31;;;;;;;14.50;8.98;;;;;;;27.27;53.65;94442.41;5128735;27;20581;-74
2022/09/10 09:46:58;;;;;;;13.05;9.38;;;;;;;27.65;54.38;94427.81;5128128;27;20192;-74
2022/09/10 09:49:25;;;;;;;12.80;9.13;;;;;;;27.45;53.43;94428.78;5128706;27;20780;-74
2022/09/10 09:51:53;;;;;;;13.82;9.55;;;;;;;27.35;53.49;94427.06;5128843;27;20216;-73
2022/09/10 09:54:24;;;;;;;19.23;12.07;;;;;;;27.53;52.43;94416.19;5129272;27;20292;-73
2022/09/10 09:56:53;;;;;;;13.98;9.02;;;;;;;27.45;52.63;94420.44;5131438;27;20189;-74
2022/09/10 09:59:28;;;;;;;18.67;9.57;;;;;;;27.28;53.50;94421.69;5131043;27;20540;-73
2022/09/10 10:01:58;;;;;;;22.77;8.63;;;;;;;27.25;54.06;94414.22;5129360;27;20196;-73
2022/09/10 10:04:32;;;;;;;12.80;9.27;;;;;;;26.99;54.08;94415.34;5128934;27;20290;-73
2022/09/10 10:07:02;;;;;;;16.13;8.52;;;;;;;26.94;54.19;94399.19;5127474;27;20683;-73
2022/09/10 10:09:31;;;;;;;15.75;9.10;;;;;;;26.65;54.71;94407.50;5128089;27;20193;-73
2022/09/10 10:12:01;;;;;;;16.90;8.88;;;;;;;26.83;55.14;94394.69;5128801;27;20703;-74
2022/09/10 10:14:40;;;;;;;14.77;9.60;;;;;;;27.01;54.42;94394.25;5130852;27;20291;-74
2022/09/10 10:17:37;;;;;;;13.50;8.55;;;;;;;27.26;53.13;94385.19;5128317;27;20663;-73
2022/09/10 10:20:10;;;;;;;15.73;9.63;;;;;;;27.59;52.13;94385.88;5043645;28;20712;-73
2022/09/10 10:22:39;;;;;;;18.05;9.38;;;;;;;28.04;51.07;94371.72;5112490;27;20196;-74
2022/09/10 10:25:40;;;;;;;18.52;10.32;;;;;;;27.88;51.96;94372.59;5130323;27;20560;-74
2022/09/10 10:28:16;;;;;;;13.95;8.45;;;;;;;28.35;51.07;94368.38;5127608;27;20197;-74
2022/09/10 10:30:46;;;;;;;18.15;9.23;;;;;;;29.04;50.21;94376.78;5127950;27;20265;-72
2022/09/10 10:33:18;;;;;;;15.15;8.77;;;;;;;29.32;49.56;94376.53;5123884;27;20217;-74
2022/09/10 10:35:49;;;;;;;16.70;8.93;;;;;;;29.59;47.62;94364.81;5129055;27;20658;-75
2022/09/10 10:38:33;;;;;;;14.30;8.95;;;;;;;29.65;47.96;94362.97;5129421;27;20272;-76
2022/09/10 10:41:35;;;;;;;14.45;8.73;;;;;;;29.21;48.13;94355.84;5119851;27;20671;-74
2022/09/10 10:44:19;;;;;;;20.15;9.10;;;;;;;28.41;49.80;94355.44;5123363;27;20284;-72
2022/09/10 10:46:55;;;;;;;11.93;8.40;;;;;;;28.29;50.83;94360.56;5127294;27;20243;-75
2022/09/10 10:49:31;;;;;;;13.20;8.40;;;;;;;28.47;50.47;94357.19;5125350;27;20243;-73
2022/09/10 10:52:08;;;;;;;13.23;8.20;;;;;;;28.80;49.25;94349.34;5128238;27;20297;-73
2022/09/10 10:54:56;;;;;;;14.95;8.73;;;;;;;29.73;47.86;94340.34;5126223;27;21012;-75
2022/09/10 10:57:33;;;;;;;12.82;7.85;;;;;;;29.38;47.78;94340.50;5127669;27;20315;-73
2022/09/10 11:00:05;;;;;;;11.73;8.18;;;;;;;29.69;47.34;94338.47;5127095;27;20193;-72
2022/09/10 11:02:43;;;;;;;10.95;7.90;;;;;;;30.07;45.54;94337.41;5128510;27;20293;-74
2022/09/10 11:05:20;;;;;;;12.90;7.97;;;;;;;29.78;45.69;94323.00;5126297;27;20193;-75
2022/09/10 11:07:48;;;;;;;13.50;8.60;;;;;;;29.47;47.04;94325.81;5127107;27;20192;-73
2022/09/10 11:10:22;;;;;;;12.60;8.23;;;;;;;29.03;47.50;94325.03;5128583;27;20242;-70
2022/09/10 11:12:54;;;;;;;16.75;8.77;;;;;;;29.24;47.78;94321.47;5127281;27;20216;-73
2022/09/10 11:15:29;;;;;;;15.85;8.38;;;;;;;30.07;46.83;94328.28;5123666;27;20221;-74
2022/09/10 11:18:02;;;;;;;14.63;7.85;;;;;;;30.94;44.39;94328.56;5128483;27;20196;-74
2022/09/10 11:20:33;;;;;;;14.40;7.80;;;;;;;31.26;42.34;94335.56;5128395;27;20208;-74
2022/09/10 11:23:10;;;;;;;11.65;6.47;;;;;;;30.30;43.93;94389.19;5126288;27;20193;-76
2022/09/10 11:25:45;;;;;;;40.55;7.18;;;;;;;25.96;55.35;94427.00;5128080;27;20196;-77
2022/09/10 11:28:15;;;;;;;34.25;5.53;;;;;;;25.13;58.31;94426.34;5129039;27;20196;-74
2022/09/10 11:30:48;;;;;;;10.63;3.80;;;;;;;24.33;57.96;94449.47;5129287;27;20212;-71
2022/09/10 11:33:20;;;;;;;7.00;3.15;;;;;;;23.93;59.32;94454.78;5128302;27;20197;-73
2022/09/10 11:35:58;;;;;;;7.40;4.00;;;;;;;23.52;61.25;94456.94;5129120;27;20197;-72
2022/09/10 11:38:32;;;;;;;6.15;3.95;;;;;;;22.26;70.19;94436.53;5128549;27;20594;-78